sensor_id;sensor_type;location;lat;lon;timestamp;pressure;altitude;pressure_sealevel;temperature;humidity
46583;BME280;32309;48.858;8.252;2024-01-27T00:01:14;102201.66;;;4.57;100.00
46583;BME280;32309;48.858;8.252;2024-01-27T00:03:15;102201.66;;;4.53;100.00
46583;BME280;32309;48.858;8.252;2024-01-27T00:05:15;102204.22;;;4.48;100.00
46583;BME280;32309;48.858;8.252;2024-01-27T00:07:18;102199.97;;;4.45;100.00
46583;BME280;32309;48.858;8.252;2024-01-27T00:09:18;102195.66;;;4.46;100.00
46583;BME280;32309;48.858;8.252;2024-01-27T00:11:18;102188.84;;;4.40;100.00
46583;BME280;32309;48.858;8.252;2024-01-27T00:13:19;102185.44;;;4.38;100.00
46583;BME280;32309;48.858;8.252;2024-01-27T00:15:19;102188.84;;;4.37;100.00
46583;BME280;32309;48.858;8.252;2024-01-27T00:17:19;102181.13;;;4.39;100.00
46583;BME280;32309;48.858;8.252;2024-01-27T00:19:23;102192.25;;;4.42;100.00
46583;BME280;32309;48.858;8.252;2024-01-27T00:21:24;102197.38;;;4.41;100.00
46583;BME280;32309;48.858;8.252;2024-01-27T00:23:24;102193.97;;;4.39;100.00
46583;BME280;32309;48.858;8.252;2024-01-27T00:25:24;102196.53;;;4.39;100.00
46583;BME280;32309;48.858;8.252;2024-01-27T00:27:24;102204.25;;;4.37;100.00
46583;BME280;32309;48.858;8.252;2024-01-27T00:29:24;102199.09;;;4.34;100.00
46583;BME280;32309;48.858;8.252;2024-01-27T00:31:25;102196.53;;;4.32;100.00
46583;BME280;32309;48.858;8.252;2024-01-27T00:33:25;102200.81;;;4.27;100.00
46583;BME280;32309;48.858;8.252;2024-01-27T00:35:25;102208.50;;;4.26;100.00
46583;BME280;32309;48.858;8.252;2024-01-27T00:37:25;102205.13;;;4.24;100.00
46583;BME280;32309;48.858;8.252;2024-01-27T00:39:28;102198.25;;;4.24;100.00
46583;BME280;32309;48.858;8.252;2024-01-27T00:41:29;102198.25;;;4.27;100.00
46583;BME280;32309;48.858;8.252;2024-01-27T00:43:29;102198.28;;;4.21;100.00
46583;BME280;32309;48.858;8.252;2024-01-27T00:45:29;102199.94;;;4.22;100.00
46583;BME280;32309;48.858;8.252;2024-01-27T00:47:30;102208.50;;;4.16;100.00
46583;BME280;32309;48.858;8.252;2024-01-27T00:49:30;102208.53;;;4.15;100.00
46583;BME280;32309;48.858;8.252;2024-01-27T00:51:30;102211.94;;;4.12;100.00
46583;BME280;32309;48.858;8.252;2024-01-27T00:53:30;102205.09;;;4.07;100.00
46583;BME280;32309;48.858;8.252;2024-01-27T00:55:30;102217.06;;;4.03;100.00
46583;BME280;32309;48.858;8.252;2024-01-27T00:57:31;102211.94;;;4.02;100.00
46583;BME280;32309;48.858;8.252;2024-01-27T00:59:31;102217.06;;;4.03;100.00
46583;BME280;32309;48.858;8.252;2024-01-27T01:01:32;102211.94;;;4.03;100.00
46583;BME280;32309;48.858;8.252;2024-01-27T01:03:32;102215.38;;;4.07;100.00
46583;BME280;32309;48.858;8.252;2024-01-27T01:05:32;102214.50;;;4.06;100.00
46583;BME280;32309;48.858;8.252;2024-01-27T01:07:32;102213.66;;;4.07;100.00
46583;BME280;32309;48.858;8.252;2024-01-27T01:09:32;102203.38;;;4.06;100.00
46583;BME280;32309;48.858;8.252;2024-01-27T01:11:32;102220.47;;;4.04;100.00
46583;BME280;32309;48.858;8.252;2024-01-27T01:13:35;102221.31;;;4.01;100.00
46583;BME280;32309;48.858;8.252;2024-01-27T01:15:36;102226.47;;;4.01;100.00
46583;BME280;32309;48.858;8.252;2024-01-27T01:17:36;102238.44;;;3.97;100.00
46583;BME280;32309;48.858;8.252;2024-01-27T01:19:43;102235.00;;;3.97;100.00
46583;BME280;32309;48.858;8.252;2024-01-27T01:21:43;102238.44;;;3.90;100.00
46583;BME280;32309;48.858;8.252;2024-01-27T01:23:43;102229.88;;;3.85;100.00
46583;BME280;32309;48.858;8.252;2024-01-27T01:25:43;102222.19;;;3.81;100.00
46583;BME280;32309;48.858;8.252;2024-01-27T01:27:44;102218.75;;;3.87;100.00
46583;BME280;32309;48.858;8.252;2024-01-27T01:29:45;102219.63;;;3.83;100.00
46583;BME280;32309;48.858;8.252;2024-01-27T01:31:45;102229.00;;;3.79;100.00
46583;BME280;32309;48.858;8.252;2024-01-27T01:33:45;102237.53;;;3.80;100.00
46583;BME280;32309;48.858;8.252;2024-01-27T01:35:45;102242.66;;;3.78;100.00
46583;BME280;32309;48.858;8.252;2024-01-27T01:37:45;102243.50;;;3.76;100.00
46583;BME280;32309;48.858;8.252;2024-01-27T01:39:48;102249.53;;;3.76;100.00
46583;BME280;32309;48.858;8.252;2024-01-27T01:41:48;102263.19;;;3.75;100.00
46583;BME280;32309;48.858;8.252;2024-01-27T01:43:48;102252.91;;;3.71;100.00
46583;BME280;32309;48.858;8.252;2024-01-27T01:45:48;102250.38;;;3.72;100.00
46583;BME280;32309;48.858;8.252;2024-01-27T01:47:50;102246.09;;;3.76;100.00
46583;BME280;32309;48.858;8.252;2024-01-27T01:49:51;102253.78;;;3.73;100.00
46583;BME280;32309;48.858;8.252;2024-01-27T01:51:52;102257.19;;;3.72;100.00
46583;BME280;32309;48.858;8.252;2024-01-27T01:53:54;102258.03;;;3.71;100.00
46583;BME280;32309;48.858;8.252;2024-01-27T01:55:57;102264.00;;;3.68;100.00
46583;BME280;32309;48.858;8.252;2024-01-27T01:58:00;102262.31;;;3.67;100.00
46583;BME280;32309;48.858;8.252;2024-01-27T02:00:01;102266.56;;;3.65;100.00
46583;BME280;32309;48.858;8.252;2024-01-27T02:02:01;102279.41;;;3.62;100.00
46583;BME280;32309;48.858;8.252;2024-01-27T02:04:01;102275.09;;;3.59;100.00
46583;BME280;32309;48.858;8.252;2024-01-27T02:06:04;102272.50;;;3.50;100.00
46583;BME280;32309;48.858;8.252;2024-01-27T02:08:04;102274.22;;;3.51;100.00
46583;BME280;32309;48.858;8.252;2024-01-27T02:10:05;102283.59;;;3.50;100.00
46583;BME280;32309;48.858;8.252;2024-01-27T02:12:05;102287.06;;;3.56;100.00
46583;BME280;32309;48.858;8.252;2024-01-27T02:14:06;102287.91;;;3.55;100.00
46583;BME280;32309;48.858;8.252;2024-01-27T02:16:06;102287.91;;;3.52;100.00
46583;BME280;32309;48.858;8.252;2024-01-27T02:18:06;102299.00;;;3.50;100.00
46583;BME280;32309;48.858;8.252;2024-01-27T02:20:07;102299.00;;;3.49;100.00
46583;BME280;32309;48.858;8.252;2024-01-27T02:22:07;102291.28;;;3.47;100.00
46583;BME280;32309;48.858;8.252;2024-01-27T02:24:07;102292.97;;;3.45;100.00
46583;BME280;32309;48.858;8.252;2024-01-27T02:26:10;102292.97;;;3.41;100.00
46583;BME280;32309;48.858;8.252;2024-01-27T02:28:11;102283.56;;;3.38;100.00
46583;BME280;32309;48.858;8.252;2024-01-27T02:30:13;102294.66;;;3.34;100.00
46583;BME280;32309;48.858;8.252;2024-01-27T02:32:13;102290.38;;;3.33;100.00
46583;BME280;32309;48.858;8.252;2024-01-27T02:34:13;102298.06;;;3.33;100.00
46583;BME280;32309;48.858;8.252;2024-01-27T02:36:14;102291.22;;;3.30;100.00
46583;BME280;32309;48.858;8.252;2024-01-27T02:38:14;102297.19;;;3.28;100.00
46583;BME280;32309;48.858;8.252;2024-01-27T02:40:14;102298.00;;;3.27;100.00
46583;BME280;32309;48.858;8.252;2024-01-27T02:42:14;102304.03;;;3.29;100.00
46583;BME280;32309;48.858;8.252;2024-01-27T02:44:15;102301.47;;;3.27;100.00
46583;BME280;32309;48.858;8.252;2024-01-27T02:46:15;102305.69;;;3.24;100.00
46583;BME280;32309;48.858;8.252;2024-01-27T02:48:15;102303.09;;;3.17;100.00
46583;BME280;32309;48.858;8.252;2024-01-27T02:50:15;102306.50;;;3.15;100.00
46583;BME280;32309;48.858;8.252;2024-01-27T02:52:16;102306.50;;;3.15;100.00
46583;BME280;32309;48.858;8.252;2024-01-27T02:54:16;102303.06;;;3.13;100.00
46583;BME280;32309;48.858;8.252;2024-01-27T02:56:16;102300.53;;;3.16;100.00
46583;BME280;32309;48.858;8.252;2024-01-27T02:58:17;102310.78;;;3.19;100.00
46583;BME280;32309;48.858;8.252;2024-01-27T03:00:17;102317.63;;;3.17;100.00
46583;BME280;32309;48.858;8.252;2024-01-27T03:02:17;102319.34;;;3.18;100.00
46583;BME280;32309;48.858;8.252;2024-01-27T03:04:17;102324.44;;;3.15;100.00
46583;BME280;32309;48.858;8.252;2024-01-27T03:06:17;102319.28;;;3.12;100.00
46583;BME280;32309;48.858;8.252;2024-01-27T03:08:18;102319.28;;;3.13;100.00
46583;BME280;32309;48.858;8.252;2024-01-27T03:10:18;102314.19;;;3.13;100.00
46583;BME280;32309;48.858;8.252;2024-01-27T03:12:19;102309.03;;;3.12;100.00
46583;BME280;32309;48.858;8.252;2024-01-27T03:14:19;102315.00;;;3.08;100.00
46583;BME280;32309;48.858;8.252;2024-01-27T03:16:19;102314.13;;;3.06;100.00
46583;BME280;32309;48.858;8.252;2024-01-27T03:18:20;102313.28;;;3.08;100.00
46583;BME280;32309;48.858;8.252;2024-01-27T03:20:20;102309.81;;;3.03;100.00
46583;BME280;32309;48.858;8.252;2024-01-27T03:22:20;102314.09;;;3.01;100.00
46583;BME280;32309;48.858;8.252;2024-01-27T03:24:20;102314.94;;;3.03;100.00
46583;BME280;32309;48.858;8.252;2024-01-27T03:26:20;102316.69;;;3.06;100.00
46583;BME280;32309;48.858;8.252;2024-01-27T03:28:20;102314.09;;;3.03;100.00
46583;BME280;32309;48.858;8.252;2024-01-27T03:30:21;102305.53;;;3.00;100.00
46583;BME280;32309;48.858;8.252;2024-01-27T03:32:21;102308.94;;;2.99;100.00
46583;BME280;32309;48.858;8.252;2024-01-27T03:34:21;102308.09;;;2.99;100.00
46583;BME280;32309;48.858;8.252;2024-01-27T03:36:24;102314.06;;;2.98;100.00
46583;BME280;32309;48.858;8.252;2024-01-27T03:38:25;102317.47;;;2.95;100.00
46583;BME280;32309;48.858;8.252;2024-01-27T03:40:25;102317.44;;;2.94;100.00
46583;BME280;32309;48.858;8.252;2024-01-27T03:42:25;102316.59;;;2.92;100.00
46583;BME280;32309;48.858;8.252;2024-01-27T03:44:25;102312.31;;;2.89;100.00
46583;BME280;32309;48.858;8.252;2024-01-27T03:46:25;102314.88;;;2.89;100.00
46583;BME280;32309;48.858;8.252;2024-01-27T03:48:26;102316.53;;;2.86;100.00
46583;BME280;32309;48.858;8.252;2024-01-27T03:50:26;102313.97;;;2.82;100.00
46583;BME280;32309;48.858;8.252;2024-01-27T03:52:26;102327.56;;;2.78;100.00
46583;BME280;32309;48.858;8.252;2024-01-27T03:54:29;102328.41;;;2.74;100.00
46583;BME280;32309;48.858;8.252;2024-01-27T03:56:29;102331.81;;;2.73;100.00
46583;BME280;32309;48.858;8.252;2024-01-27T03:58:29;102336.91;;;2.72;100.00
46583;BME280;32309;48.858;8.252;2024-01-27T04:00:30;102340.34;;;2.71;100.00
46583;BME280;32309;48.858;8.252;2024-01-27T04:02:32;102337.72;;;2.66;100.00
46583;BME280;32309;48.858;8.252;2024-01-27T04:04:32;102342.84;;;2.66;100.00
46583;BME280;32309;48.858;8.252;2024-01-27T04:06:39;102345.38;;;2.63;100.00
46583;BME280;32309;48.858;8.252;2024-01-27T04:08:40;102347.06;;;2.62;100.00
46583;BME280;32309;48.858;8.252;2024-01-27T04:10:43;102338.53;;;2.62;100.00
46583;BME280;32309;48.858;8.252;2024-01-27T04:12:43;102343.66;;;2.60;100.00
46583;BME280;32309;48.858;8.252;2024-01-27T04:14:47;102339.38;;;2.58;100.00
46583;BME280;32309;48.858;8.252;2024-01-27T04:16:47;102348.69;;;2.53;100.00
46583;BME280;32309;48.858;8.252;2024-01-27T04:18:47;102353.81;;;2.53;100.00
46583;BME280;32309;48.858;8.252;2024-01-27T04:20:47;102350.38;;;2.49;100.00
46583;BME280;32309;48.858;8.252;2024-01-27T04:22:48;102358.06;;;2.50;100.00
46583;BME280;32309;48.858;8.252;2024-01-27T04:24:48;102352.91;;;2.47;100.00
46583;BME280;32309;48.858;8.252;2024-01-27T04:26:48;102357.16;;;2.45;100.00
46583;BME280;32309;48.858;8.252;2024-01-27T04:28:49;102358.00;;;2.44;100.00
46583;BME280;32309;48.858;8.252;2024-01-27T04:30:49;102359.69;;;2.41;100.00
46583;BME280;32309;48.858;8.252;2024-01-27T04:32:50;102360.53;;;2.41;100.00
46583;BME280;32309;48.858;8.252;2024-01-27T04:34:51;102363.06;;;2.40;100.00
46583;BME280;32309;48.858;8.252;2024-01-27T04:36:52;102362.25;;;2.42;100.00
46583;BME280;32309;48.858;8.252;2024-01-27T04:38:52;102368.19;;;2.40;100.00
46583;BME280;32309;48.858;8.252;2024-01-27T04:40:52;102366.47;;;2.37;100.00
46583;BME280;32309;48.858;8.252;2024-01-27T04:42:53;102364.72;;;2.36;100.00
46583;BME280;32309;48.858;8.252;2024-01-27T04:44:53;102358.78;;;2.37;100.00
46583;BME280;32309;48.858;8.252;2024-01-27T04:46:53;102356.19;;;2.34;100.00
46583;BME280;32309;48.858;8.252;2024-01-27T04:48:54;102347.63;;;2.29;100.00
46583;BME280;32309;48.858;8.252;2024-01-27T04:50:54;102356.19;;;2.31;100.00
46583;BME280;32309;48.858;8.252;2024-01-27T04:52:54;102359.59;;;2.33;100.00
46583;BME280;32309;48.858;8.252;2024-01-27T04:54:55;102354.47;;;2.33;100.00
46583;BME280;32309;48.858;8.252;2024-01-27T04:56:55;102358.75;;;2.31;100.00
46583;BME280;32309;48.858;8.252;2024-01-27T04:58:55;102355.31;;;2.30;100.00
46583;BME280;32309;48.858;8.252;2024-01-27T05:00:55;102357.84;;;2.29;100.00
46583;BME280;32309;48.858;8.252;2024-01-27T05:02:55;102355.28;;;2.29;100.00
46583;BME280;32309;48.858;8.252;2024-01-27T05:04:57;102357.84;;;2.27;100.00
46583;BME280;32309;48.858;8.252;2024-01-27T05:06:57;102357.84;;;2.26;100.00
46583;BME280;32309;48.858;8.252;2024-01-27T05:08:57;102363.78;;;2.26;100.00
46583;BME280;32309;48.858;8.252;2024-01-27T05:10:57;102356.94;;;2.25;100.00
46583;BME280;32309;48.858;8.252;2024-01-27T05:12:58;102347.56;;;2.24;100.00
46583;BME280;32309;48.858;8.252;2024-01-27T05:14:59;102352.66;;;2.24;100.00
46583;BME280;32309;48.858;8.252;2024-01-27T05:16:59;102348.44;;;2.25;100.00
46583;BME280;32309;48.858;8.252;2024-01-27T05:18:59;102347.53;;;2.21;100.00
46583;BME280;32309;48.858;8.252;2024-01-27T05:21:00;102335.56;;;2.19;100.00
46583;BME280;32309;48.858;8.252;2024-01-27T05:23:00;102339.00;;;2.21;100.00
46583;BME280;32309;48.858;8.252;2024-01-27T05:25:00;102341.56;;;2.21;100.00
46583;BME280;32309;48.858;8.252;2024-01-27T05:27:00;102339.00;;;2.21;100.00
46583;BME280;32309;48.858;8.252;2024-01-27T05:29:00;102343.25;;;2.20;100.00
46583;BME280;32309;48.858;8.252;2024-01-27T05:31:01;102340.69;;;2.19;100.00
46583;BME280;32309;48.858;8.252;2024-01-27T05:33:01;102339.81;;;2.16;100.00
46583;BME280;32309;48.858;8.252;2024-01-27T05:35:01;102344.03;;;2.13;100.00
46583;BME280;32309;48.858;8.252;2024-01-27T05:37:02;102344.88;;;2.13;100.00
46583;BME280;32309;48.858;8.252;2024-01-27T05:39:03;102344.06;;;2.14;100.00
46583;BME280;32309;48.858;8.252;2024-01-27T05:41:06;102344.03;;;2.11;100.00
46583;BME280;32309;48.858;8.252;2024-01-27T05:43:06;102349.09;;;2.10;100.00
46583;BME280;32309;48.858;8.252;2024-01-27T05:45:07;102349.97;;;2.10;100.00
46583;BME280;32309;48.858;8.252;2024-01-27T05:47:07;102347.41;;;2.07;100.00
46583;BME280;32309;48.858;8.252;2024-01-27T05:49:10;102349.94;;;2.07;100.00
46583;BME280;32309;48.858;8.252;2024-01-27T05:51:10;102349.88;;;2.01;100.00
46583;BME280;32309;48.858;8.252;2024-01-27T05:53:12;102352.34;;;1.95;100.00
46583;BME280;32309;48.858;8.252;2024-01-27T05:55:15;102346.38;;;1.94;100.00
46583;BME280;32309;48.858;8.252;2024-01-27T05:57:17;102351.41;;;1.88;100.00
46583;BME280;32309;48.858;8.252;2024-01-27T05:59:17;102346.28;;;1.85;100.00
46583;BME280;32309;48.858;8.252;2024-01-27T06:01:17;102347.97;;;1.85;100.00
46583;BME280;32309;48.858;8.252;2024-01-27T06:03:18;102348.81;;;1.83;100.00
46583;BME280;32309;48.858;8.252;2024-01-27T06:05:18;102351.34;;;1.82;100.00
46583;BME280;32309;48.858;8.252;2024-01-27T06:07:19;102349.66;;;1.81;100.00
46583;BME280;32309;48.858;8.252;2024-01-27T06:09:19;102359.00;;;1.82;100.00
46583;BME280;32309;48.858;8.252;2024-01-27T06:11:23;102366.66;;;1.80;100.00
46583;BME280;32309;48.858;8.252;2024-01-27T06:13:23;102372.69;;;1.84;100.00
46583;BME280;32309;48.858;8.252;2024-01-27T06:15:23;102369.22;;;1.82;100.00
46583;BME280;32309;48.858;8.252;2024-01-27T06:17:23;102376.91;;;1.82;100.00
46583;BME280;32309;48.858;8.252;2024-01-27T06:19:24;102369.28;;;1.85;100.00
46583;BME280;32309;48.858;8.252;2024-01-27T06:21:24;102368.47;;;1.86;100.00
46583;BME280;32309;48.858;8.252;2024-01-27T06:23:25;102372.72;;;1.89;100.00
46583;BME280;32309;48.858;8.252;2024-01-27T06:25:25;102374.44;;;1.88;100.00
46583;BME280;32309;48.858;8.252;2024-01-27T06:27:25;102380.44;;;1.90;100.00
46583;BME280;32309;48.858;8.252;2024-01-27T06:29:25;102381.31;;;1.94;100.00
46583;BME280;32309;48.858;8.252;2024-01-27T06:31:27;102377.94;;;1.95;100.00
46583;BME280;32309;48.858;8.252;2024-01-27T06:33:27;102381.38;;;1.98;100.00
46583;BME280;32309;48.858;8.252;2024-01-27T06:35:27;102384.78;;;1.99;100.00
46583;BME280;32309;48.858;8.252;2024-01-27T06:37:28;102382.22;;;1.96;100.00
46583;BME280;32309;48.858;8.252;2024-01-27T06:39:28;102383.03;;;1.95;100.00
46583;BME280;32309;48.858;8.252;2024-01-27T06:41:29;102388.13;;;1.93;100.00
46583;BME280;32309;48.858;8.252;2024-01-27T06:43:32;102384.69;;;1.91;100.00
46583;BME280;32309;48.858;8.252;2024-01-27T06:45:32;102386.41;;;1.91;100.00
46583;BME280;32309;48.858;8.252;2024-01-27T06:47:33;102382.13;;;1.90;100.00
46583;BME280;32309;48.858;8.252;2024-01-27T06:49:33;102377.81;;;1.86;100.00
46583;BME280;32309;48.858;8.252;2024-01-27T06:51:33;102380.31;;;1.81;100.00
46583;BME280;32309;48.858;8.252;2024-01-27T06:53:33;102381.16;;;1.80;100.00
46583;BME280;32309;48.858;8.252;2024-01-27T06:55:34;102389.69;;;1.80;100.00
46583;BME280;32309;48.858;8.252;2024-01-27T06:57:34;102388.81;;;1.78;100.00
46583;BME280;32309;48.858;8.252;2024-01-27T06:59:34;102386.25;;;1.78;100.00
46583;BME280;32309;48.858;8.252;2024-01-27T07:01:34;102383.63;;;1.74;100.00
46583;BME280;32309;48.858;8.252;2024-01-27T07:03:34;102386.16;;;1.71;100.00
46583;BME280;32309;48.858;8.252;2024-01-27T07:05:35;102386.97;;;1.70;100.00
46583;BME280;32309;48.858;8.252;2024-01-27T07:07:40;102385.25;;;1.67;100.00
46583;BME280;32309;48.858;8.252;2024-01-27T07:09:43;102386.88;;;1.62;100.00
46583;BME280;32309;48.858;8.252;2024-01-27T07:11:43;102385.16;;;1.61;100.00
46583;BME280;32309;48.858;8.252;2024-01-27T07:13:43;102391.13;;;1.60;100.00
46583;BME280;32309;48.858;8.252;2024-01-27T07:15:44;102391.13;;;1.60;100.00
46583;BME280;32309;48.858;8.252;2024-01-27T07:17:44;102397.91;;;1.58;100.00
46583;BME280;32309;48.858;8.252;2024-01-27T07:19:44;102394.44;;;1.54;100.00
46583;BME280;32309;48.858;8.252;2024-01-27T07:21:44;102391.88;;;1.54;100.00
46583;BME280;32309;48.858;8.252;2024-01-27T07:23:44;102388.44;;;1.51;100.00
46583;BME280;32309;48.858;8.252;2024-01-27T07:25:45;102396.94;;;1.49;100.00
46583;BME280;32309;48.858;8.252;2024-01-27T07:27:45;102393.56;;;1.52;100.00
46583;BME280;32309;48.858;8.252;2024-01-27T07:29:46;102390.19;;;1.55;100.00
46583;BME280;32309;48.858;8.252;2024-01-27T07:31:46;102391.06;;;1.57;100.00
46583;BME280;32309;48.858;8.252;2024-01-27T07:33:46;102388.53;;;1.58;100.00
46583;BME280;32309;48.858;8.252;2024-01-27T07:35:47;102391.13;;;1.61;100.00
46583;BME280;32309;48.858;8.252;2024-01-27T07:37:47;102392.88;;;1.64;100.00
46583;BME280;32309;48.858;8.252;2024-01-27T07:39:47;102392.06;;;1.65;100.00
46583;BME280;32309;48.858;8.252;2024-01-27T07:41:49;102391.19;;;1.66;100.00
46583;BME280;32309;48.858;8.252;2024-01-27T07:43:49;102390.34;;;1.67;100.00
46583;BME280;32309;48.858;8.252;2024-01-27T07:45:49;102388.66;;;1.67;100.00
46583;BME280;32309;48.858;8.252;2024-01-27T07:47:49;102391.25;;;1.71;100.00
46583;BME280;32309;48.858;8.252;2024-01-27T07:49:50;102388.72;;;1.71;100.00
46583;BME280;32309;48.858;8.252;2024-01-27T07:51:50;102385.31;;;1.72;100.00
46583;BME280;32309;48.858;8.252;2024-01-27T07:53:50;102384.44;;;1.70;100.00
46583;BME280;32309;48.858;8.252;2024-01-27T07:55:51;102374.22;;;1.71;100.00
46583;BME280;32309;48.858;8.252;2024-01-27T07:57:53;102377.69;;;1.75;100.00
46583;BME280;32309;48.858;8.252;2024-01-27T07:59:54;102379.44;;;1.79;100.00
46583;BME280;32309;48.858;8.252;2024-01-27T08:01:54;102376.06;;;1.81;100.00
46583;BME280;32309;48.858;8.252;2024-01-27T08:03:54;102384.56;;;1.82;100.00
46583;BME280;32309;48.858;8.252;2024-01-27T08:05:54;102397.41;;;1.83;100.00
46583;BME280;32309;48.858;8.252;2024-01-27T08:07:56;102390.59;;;1.86;100.00
46583;BME280;32309;48.858;8.252;2024-01-27T08:10:02;102388.94;;;1.89;100.00
46583;BME280;32309;48.858;8.252;2024-01-27T08:12:04;102381.28;;;1.89;100.00
46583;BME280;32309;48.858;8.252;2024-01-27T08:14:05;102377.88;;;1.90;100.00
46583;BME280;32309;48.858;8.252;2024-01-27T08:16:05;102383.84;;;1.92;100.00
46583;BME280;32309;48.858;8.252;2024-01-27T08:18:05;102377.94;;;1.95;100.00
46583;BME280;32309;48.858;8.252;2024-01-27T08:20:12;102388.16;;;1.96;100.00
46583;BME280;32309;48.858;8.252;2024-01-27T08:22:12;102390.78;;;1.98;100.00
46583;BME280;32309;48.858;8.252;2024-01-27T08:24:20;102393.34;;;1.99;100.00
46583;BME280;32309;48.858;8.252;2024-01-27T08:26:20;102395.94;;;2.03;100.00
46583;BME280;32309;48.858;8.252;2024-01-27T08:28:23;102395.09;;;2.05;100.00
46583;BME280;32309;48.858;8.252;2024-01-27T08:30:24;102398.50;;;2.06;100.00
46583;BME280;32309;48.858;8.252;2024-01-27T08:32:24;102405.34;;;2.05;100.00
46583;BME280;32309;48.858;8.252;2024-01-27T08:34:24;102400.25;;;2.08;100.00
46583;BME280;32309;48.858;8.252;2024-01-27T08:36:24;102401.16;;;2.12;100.00
46583;BME280;32309;48.858;8.252;2024-01-27T08:38:25;102396.88;;;2.11;100.00
46583;BME280;32309;48.858;8.252;2024-01-27T08:40:25;102399.44;;;2.11;100.00
46583;BME280;32309;48.858;8.252;2024-01-27T08:42:25;102407.13;;;2.12;100.00
46583;BME280;32309;48.858;8.252;2024-01-27T08:44:26;102411.41;;;2.13;100.00
46583;BME280;32309;48.858;8.252;2024-01-27T08:46:47;102404.59;;;2.14;100.00
46583;BME280;32309;48.858;8.252;2024-01-27T08:48:48;102412.31;;;2.19;100.00
46583;BME280;32309;48.858;8.252;2024-01-27T08:50:51;102408.09;;;2.21;100.00
46583;BME280;32309;48.858;8.252;2024-01-27T08:52:51;102407.28;;;2.26;100.00
46583;BME280;32309;48.858;8.252;2024-01-27T08:54:54;102407.28;;;2.26;100.00
46583;BME280;32309;48.858;8.252;2024-01-27T08:56:54;102403.91;;;2.30;100.00
46583;BME280;32309;48.858;8.252;2024-01-27T08:58:54;102402.25;;;2.32;100.00
46583;BME280;32309;48.858;8.252;2024-01-27T09:00:55;102400.56;;;2.35;100.00
46583;BME280;32309;48.858;8.252;2024-01-27T09:02:58;102399.75;;;2.39;100.00
46583;BME280;32309;48.858;8.252;2024-01-27T09:04:58;102392.13;;;2.42;100.00
46583;BME280;32309;48.858;8.252;2024-01-27T09:06:58;102392.13;;;2.43;100.00
46583;BME280;32309;48.858;8.252;2024-01-27T09:08:59;102392.13;;;2.43;100.00
46583;BME280;32309;48.858;8.252;2024-01-27T09:10:59;102392.97;;;2.42;100.00
46583;BME280;32309;48.858;8.252;2024-01-27T09:12:59;102398.09;;;2.44;100.00
46583;BME280;32309;48.858;8.252;2024-01-27T09:14:59;102399.00;;;2.47;100.00
46583;BME280;32309;48.858;8.252;2024-01-27T09:17:00;102388.75;;;2.49;100.00
46583;BME280;32309;48.858;8.252;2024-01-27T09:19:00;102390.50;;;2.52;100.00
46583;BME280;32309;48.858;8.252;2024-01-27T09:21:01;102386.28;;;2.55;100.00
46583;BME280;32309;48.858;8.252;2024-01-27T09:23:04;102390.56;;;2.56;100.00
46583;BME280;32309;48.858;8.252;2024-01-27T09:25:04;102393.13;;;2.58;100.00
46583;BME280;32309;48.858;8.252;2024-01-27T09:27:04;102399.16;;;2.63;100.00
46583;BME280;32309;48.858;8.252;2024-01-27T09:29:06;102400.81;;;2.61;100.00
46583;BME280;32309;48.858;8.252;2024-01-27T09:31:24;102405.03;;;2.56;98.73
46583;BME280;32309;48.858;8.252;2024-01-27T09:33:26;102406.59;;;2.43;97.88
46583;BME280;32309;48.858;8.252;2024-01-27T09:35:36;102412.50;;;2.34;98.94
46583;BME280;32309;48.858;8.252;2024-01-27T09:37:36;102411.63;;;2.33;99.64
46583;BME280;32309;48.858;8.252;2024-01-27T09:44:03;102399.78;;;2.40;98.22
46583;BME280;32309;48.858;8.252;2024-01-27T09:46:04;102399.72;;;2.37;97.98
46583;BME280;32309;48.858;8.252;2024-01-27T09:48:05;102393.75;;;2.37;97.63
46583;BME280;32309;48.858;8.252;2024-01-27T09:50:07;102391.16;;;2.33;97.09
46583;BME280;32309;48.858;8.252;2024-01-27T09:52:13;102385.16;;;2.30;97.58
46583;BME280;32309;48.858;8.252;2024-01-27T09:54:13;102379.22;;;2.31;97.89
46583;BME280;32309;48.858;8.252;2024-01-27T09:56:14;102380.13;;;2.38;98.06
46583;BME280;32309;48.858;8.252;2024-01-27T09:58:17;102377.53;;;2.36;97.46
46583;BME280;32309;48.858;8.252;2024-01-27T10:00:19;102370.72;;;2.35;97.50
46583;BME280;32309;48.858;8.252;2024-01-27T10:02:19;102368.13;;;2.33;97.67
46583;BME280;32309;48.858;8.252;2024-01-27T10:04:20;102369.81;;;2.31;97.71
46583;BME280;32309;48.858;8.252;2024-01-27T10:06:22;102367.25;;;2.31;97.71
46583;BME280;32309;48.858;8.252;2024-01-27T10:08:23;102369.00;;;2.34;97.85
46583;BME280;32309;48.858;8.252;2024-01-27T10:10:26;102363.91;;;2.39;97.64
46583;BME280;32309;48.858;8.252;2024-01-27T10:12:26;102376.72;;;2.39;97.57
46583;BME280;32309;48.858;8.252;2024-01-27T10:14:41;102374.19;;;2.40;97.40
46583;BME280;32309;48.858;8.252;2024-01-27T10:16:44;102377.59;;;2.41;97.85
46583;BME280;32309;48.858;8.252;2024-01-27T10:18:45;102375.94;;;2.47;98.16
46583;BME280;32309;48.858;8.252;2024-01-27T10:21:11;102366.63;;;2.54;98.04
46583;BME280;32309;48.858;8.252;2024-01-27T10:23:10;102372.66;;;2.61;97.45
46583;BME280;32309;48.858;8.252;2024-01-27T10:25:11;102376.13;;;2.67;96.95
46583;BME280;32309;48.858;8.252;2024-01-27T10:27:12;102372.75;;;2.70;96.99
46583;BME280;32309;48.858;8.252;2024-01-27T10:29:12;102375.34;;;2.73;96.81
46583;BME280;32309;48.858;8.252;2024-01-27T10:31:12;102371.09;;;2.78;96.96
46583;BME280;32309;48.858;8.252;2024-01-27T10:33:13;102373.72;;;2.80;97.32
46583;BME280;32309;48.858;8.252;2024-01-27T10:35:16;102372.84;;;2.81;97.25
46583;BME280;32309;48.858;8.252;2024-01-27T10:37:23;102378.84;;;2.86;97.24